sensor_id;sensor_type;location;lat;lon;timestamp;pressure;altitude;pressure_sealevel;temperature
34310;BMP280;61664;48.112;11.662;2023-05-19T00:01:21;95934.38;;;14.13
34310;BMP280;61664;48.112;11.662;2023-05-19T00:03:53;95941.06;;;14.17
34310;BMP280;61664;48.112;11.662;2023-05-19T00:06:23;95938.59;;;14.19
34310;BMP280;61664;48.112;11.662;2023-05-19T00:09:08;95937.34;;;14.15
34310;BMP280;61664;48.112;11.662;2023-05-19T00:11:38;95930.50;;;14.14
34310;BMP280;61664;48.112;11.662;2023-05-19T00:14:08;95937.13;;;14.18
34310;BMP280;61664;48.112;11.662;2023-05-19T00:16:37;95928.81;;;14.16
34310;BMP280;61664;48.112;11.662;2023-05-19T00:19:05;95916.78;;;14.12
34310;BMP280;61664;48.112;11.662;2023-05-19T00:21:37;95921.69;;;14.13
34310;BMP280;61664;48.112;11.662;2023-05-19T00:24:05;95922.50;;;14.19
34310;BMP280;61664;48.112;11.662;2023-05-19T00:26:32;95909.94;;;14.11
34310;BMP280;61664;48.112;11.662;2023-05-19T00:28:59;95900.84;;;14.08
34310;BMP280;61664;48.112;11.662;2023-05-19T00:31:27;95913.91;;;14.15
34310;BMP280;61664;48.112;11.662;2023-05-19T00:33:54;95903.06;;;14.10
34310;BMP280;61664;48.112;11.662;2023-05-19T00:36:21;95903.34;;;14.12
34310;BMP280;61664;48.112;11.662;2023-05-19T00:38:48;95898.97;;;14.14
34310;BMP280;61664;48.112;11.662;2023-05-19T00:41:17;95892.88;;;14.14
34310;BMP280;61664;48.112;11.662;2023-05-19T00:43:44;95903.44;;;14.17
34310;BMP280;61664;48.112;11.662;2023-05-19T00:46:11;95907.19;;;14.25
34310;BMP280;61664;48.112;11.662;2023-05-19T00:48:41;95892.47;;;14.21
34310;BMP280;61664;48.112;11.662;2023-05-19T00:51:11;95893.97;;;14.22
34310;BMP280;61664;48.112;11.662;2023-05-19T00:53:43;95889.03;;;14.20
34310;BMP280;61664;48.112;11.662;2023-05-19T00:56:15;95892.03;;;14.22
34310;BMP280;61664;48.112;11.662;2023-05-19T00:58:44;95893.00;;;14.25
34310;BMP280;61664;48.112;11.662;2023-05-19T01:01:11;95895.50;;;14.28
34310;BMP280;61664;48.112;11.662;2023-05-19T01:03:43;95893.28;;;14.27
34310;BMP280;61664;48.112;11.662;2023-05-19T01:06:10;95877.50;;;14.14
34310;BMP280;61664;48.112;11.662;2023-05-19T01:08:38;95881.75;;;14.21
34310;BMP280;61664;48.112;11.662;2023-05-19T01:11:06;95881.94;;;14.17
34310;BMP280;61664;48.112;11.662;2023-05-19T01:13:35;95890.47;;;14.16
34310;BMP280;61664;48.112;11.662;2023-05-19T01:16:18;95895.19;;;14.21
34310;BMP280;61664;48.112;11.662;2023-05-19T01:19:00;95898.59;;;14.21
34310;BMP280;61664;48.112;11.662;2023-05-19T01:25:16;95870.03;;;14.04
34310;BMP280;61664;48.112;11.662;2023-05-19T01:30:51;95900.09;;;14.22
34310;BMP280;61664;48.112;11.662;2023-05-19T01:33:22;95880.16;;;14.14
34310;BMP280;61664;48.112;11.662;2023-05-19T01:35:52;95886.56;;;14.17
34310;BMP280;61664;48.112;11.662;2023-05-19T01:38:21;95889.03;;;14.20
34310;BMP280;61664;48.112;11.662;2023-05-19T01:40:50;95890.97;;;14.20
34310;BMP280;61664;48.112;11.662;2023-05-19T01:43:22;95900.59;;;14.26
34310;BMP280;61664;48.112;11.662;2023-05-19T01:45:50;95888.00;;;14.18
34310;BMP280;61664;48.112;11.662;2023-05-19T01:48:18;95895.22;;;14.26
34310;BMP280;61664;48.112;11.662;2023-05-19T01:50:45;95890.81;;;14.23
34310;BMP280;61664;48.112;11.662;2023-05-19T01:53:12;95898.00;;;14.32
34310;BMP280;61664;48.112;11.662;2023-05-19T01:55:46;95903.19;;;14.36
34310;BMP280;61664;48.112;11.662;2023-05-19T01:58:47;95896.25;;;14.29
34310;BMP280;61664;48.112;11.662;2023-05-19T02:01:52;95896.06;;;14.32
34310;BMP280;61664;48.112;11.662;2023-05-19T02:04:42;95893.81;;;14.31
34310;BMP280;61664;48.112;11.662;2023-05-19T02:07:31;95898.50;;;14.36
34310;BMP280;61664;48.112;11.662;2023-05-19T02:10:11;95890.94;;;14.35
34310;BMP280;61664;48.112;11.662;2023-05-19T02:12:40;95890.19;;;14.34
34310;BMP280;61664;48.112;11.662;2023-05-19T02:15:15;95898.31;;;14.40
34310;BMP280;61664;48.112;11.662;2023-05-19T02:17:44;95891.19;;;14.37
34310;BMP280;61664;48.112;11.662;2023-05-19T02:20:17;95870.56;;;14.28
34310;BMP280;61664;48.112;11.662;2023-05-19T02:22:44;95884.09;;;14.34
34310;BMP280;61664;48.112;11.662;2023-05-19T02:25:11;95885.03;;;14.30
34310;BMP280;61664;48.112;11.662;2023-05-19T02:27:39;95876.63;;;14.23
34310;BMP280;61664;48.112;11.662;2023-05-19T02:30:08;95859.69;;;14.17
34310;BMP280;61664;48.112;11.662;2023-05-19T02:32:35;95872.47;;;14.22
34310;BMP280;61664;48.112;11.662;2023-05-19T02:35:02;95880.78;;;14.24
34310;BMP280;61664;48.112;11.662;2023-05-19T02:37:30;95878.09;;;14.24
34310;BMP280;61664;48.112;11.662;2023-05-19T02:40:00;95862.84;;;14.15
34310;BMP280;61664;48.112;11.662;2023-05-19T02:42:27;95865.81;;;14.17
34310;BMP280;61664;48.112;11.662;2023-05-19T02:44:54;95874.19;;;14.25
34310;BMP280;61664;48.112;11.662;2023-05-19T02:47:21;95857.47;;;14.15
34310;BMP280;61664;48.112;11.662;2023-05-19T02:49:48;95876.13;;;14.24
34310;BMP280;61664;48.112;11.662;2023-05-19T02:52:15;95871.50;;;14.25
34310;BMP280;61664;48.112;11.662;2023-05-19T02:54:42;95860.91;;;14.16
34310;BMP280;61664;48.112;11.662;2023-05-19T02:57:09;95871.72;;;14.21
34310;BMP280;61664;48.112;11.662;2023-05-19T02:59:36;95870.22;;;14.20
34310;BMP280;61664;48.112;11.662;2023-05-19T03:02:04;95859.88;;;14.13
34310;BMP280;61664;48.112;11.662;2023-05-19T03:04:31;95853.31;;;14.14
34310;BMP280;61664;48.112;11.662;2023-05-19T03:06:57;95851.34;;;14.15
34310;BMP280;61664;48.112;11.662;2023-05-19T03:09:24;95851.81;;;14.13
34310;BMP280;61664;48.112;11.662;2023-05-19T03:11:52;95851.13;;;14.18
34310;BMP280;61664;48.112;11.662;2023-05-19T03:14:19;95858.22;;;14.16
34310;BMP280;61664;48.112;11.662;2023-05-19T03:16:49;95859.88;;;14.13
34310;BMP280;61664;48.112;11.662;2023-05-19T03:19:16;95866.00;;;14.14
34310;BMP280;61664;48.112;11.662;2023-05-19T03:21:43;95869.16;;;14.12
34310;BMP280;61664;48.112;11.662;2023-05-19T03:24:10;95866.47;;;14.12
34310;BMP280;61664;48.112;11.662;2023-05-19T03:26:37;95866.66;;;14.09
34310;BMP280;61664;48.112;11.662;2023-05-19T03:29:04;95861.97;;;14.04
34310;BMP280;61664;48.112;11.662;2023-05-19T03:31:31;95860.53;;;14.08
34310;BMP280;61664;48.112;11.662;2023-05-19T03:33:58;95858.31;;;14.07
34310;BMP280;61664;48.112;11.662;2023-05-19T03:36:25;95852.44;;;14.03
34310;BMP280;61664;48.112;11.662;2023-05-19T03:38:58;95863.50;;;14.10
34310;BMP280;61664;48.112;11.662;2023-05-19T03:41:24;95846.31;;;14.02
34310;BMP280;61664;48.112;11.662;2023-05-19T03:43:51;95838.72;;;14.01
34310;BMP280;61664;48.112;11.662;2023-05-19T03:46:18;95845.38;;;14.05
34310;BMP280;61664;48.112;11.662;2023-05-19T03:48:45;95849.53;;;14.06
34310;BMP280;61664;48.112;11.662;2023-05-19T03:51:12;95848.59;;;14.09
34310;BMP280;61664;48.112;11.662;2023-05-19T03:53:39;95854.50;;;14.13
34310;BMP280;61664;48.112;11.662;2023-05-19T03:56:08;95854.25;;;14.11
34310;BMP280;61664;48.112;11.662;2023-05-19T03:58:37;95866.28;;;14.16
34310;BMP280;61664;48.112;11.662;2023-05-19T04:01:06;95841.28;;;14.10
34310;BMP280;61664;48.112;11.662;2023-05-19T04:03:33;95842.94;;;14.07
34310;BMP280;61664;48.112;11.662;2023-05-19T04:06:00;95854.31;;;14.17
34310;BMP280;61664;48.112;11.662;2023-05-19T04:08:27;95855.06;;;14.17
34310;BMP280;61664;48.112;11.662;2023-05-19T04:10:54;95855.66;;;14.27
34310;BMP280;61664;48.112;11.662;2023-05-19T04:13:21;95852.00;;;14.30
34310;BMP280;61664;48.112;11.662;2023-05-19T04:15:48;95846.38;;;14.28
34310;BMP280;61664;48.112;11.662;2023-05-19T04:18:15;95848.88;;;14.31
34310;BMP280;61664;48.112;11.662;2023-05-19T04:20:41;95841.00;;;14.28
34310;BMP280;61664;48.112;11.662;2023-05-19T04:23:08;95848.69;;;14.35
34310;BMP280;61664;48.112;11.662;2023-05-19T04:25:36;95840.06;;;14.31
34310;BMP280;61664;48.112;11.662;2023-05-19T04:28:03;95843.31;;;14.35
34310;BMP280;61664;48.112;11.662;2023-05-19T04:30:30;95843.63;;;14.43
34310;BMP280;61664;48.112;11.662;2023-05-19T04:32:57;95840.69;;;14.41
34310;BMP280;61664;48.112;11.662;2023-05-19T04:35:26;95840.47;;;14.44
34310;BMP280;61664;48.112;11.662;2023-05-19T04:37:53;95842.69;;;14.46
34310;BMP280;61664;48.112;11.662;2023-05-19T04:40:21;95847.81;;;14.49
34310;BMP280;61664;48.112;11.662;2023-05-19T04:42:52;95837.78;;;14.44
34310;BMP280;61664;48.112;11.662;2023-05-19T04:45:19;95852.81;;;14.56
34310;BMP280;61664;48.112;11.662;2023-05-19T04:47:46;95849.38;;;14.56
34310;BMP280;61664;48.112;11.662;2023-05-19T04:50:14;95846.22;;;14.57
34310;BMP280;61664;48.112;11.662;2023-05-19T04:52:42;95858.28;;;14.67
34310;BMP280;61664;48.112;11.662;2023-05-19T04:55:11;95849.25;;;14.65
34310;BMP280;61664;48.112;11.662;2023-05-19T04:57:39;95848.09;;;14.72
34310;BMP280;61664;48.112;11.662;2023-05-19T05:00:07;95844.91;;;14.73
34310;BMP280;61664;48.112;11.662;2023-05-19T05:02:37;95834.91;;;14.74
34310;BMP280;61664;48.112;11.662;2023-05-19T05:05:05;95832.72;;;14.78
34310;BMP280;61664;48.112;11.662;2023-05-19T05:07:32;95838.16;;;14.83
34310;BMP280;61664;48.112;11.662;2023-05-19T05:09:59;95821.47;;;14.79
34310;BMP280;61664;48.112;11.662;2023-05-19T05:12:27;95835.22;;;14.81
34310;BMP280;61664;48.112;11.662;2023-05-19T05:14:54;95826.47;;;14.86
34310;BMP280;61664;48.112;11.662;2023-05-19T05:17:21;95835.31;;;14.92
34310;BMP280;61664;48.112;11.662;2023-05-19T05:19:48;95839.53;;;14.99
34310;BMP280;61664;48.112;11.662;2023-05-19T05:22:16;95824.31;;;14.96
34310;BMP280;61664;48.112;11.662;2023-05-19T05:24:43;95838.09;;;15.03
34310;BMP280;61664;48.112;11.662;2023-05-19T05:27:10;95831.75;;;15.07
34310;BMP280;61664;48.112;11.662;2023-05-19T05:29:37;95817.09;;;15.08
34310;BMP280;61664;48.112;11.662;2023-05-19T05:32:04;95823.72;;;15.12
34310;BMP280;61664;48.112;11.662;2023-05-19T05:34:32;95827.69;;;15.17
34310;BMP280;61664;48.112;11.662;2023-05-19T05:36:59;95823.28;;;15.19
34310;BMP280;61664;48.112;11.662;2023-05-19T05:39:39;95820.84;;;15.16
34310;BMP280;61664;48.112;11.662;2023-05-19T05:42:07;95825.53;;;15.21
34310;BMP280;61664;48.112;11.662;2023-05-19T05:44:59;95800.69;;;15.06
34310;BMP280;61664;48.112;11.662;2023-05-19T05:47:26;95839.72;;;15.21
34310;BMP280;61664;48.112;11.662;2023-05-19T05:49:54;95837.03;;;15.21
34310;BMP280;61664;48.112;11.662;2023-05-19T05:52:26;95839.28;;;15.28
34310;BMP280;61664;48.112;11.662;2023-05-19T05:54:55;95837.59;;;15.31
34310;BMP280;61664;48.112;11.662;2023-05-19T05:57:23;95828.38;;;15.43
34310;BMP280;61664;48.112;11.662;2023-05-19T05:59:50;95822.53;;;15.45
34310;BMP280;61664;48.112;11.662;2023-05-19T06:02:17;95842.19;;;15.56
34310;BMP280;61664;48.112;11.662;2023-05-19T06:04:44;95832.63;;;15.55
34310;BMP280;61664;48.112;11.662;2023-05-19T06:07:11;95835.13;;;15.70
34310;BMP280;61664;48.112;11.662;2023-05-19T06:09:38;95834.22;;;15.79
34310;BMP280;61664;48.112;11.662;2023-05-19T06:12:05;95841.84;;;15.86
34310;BMP280;61664;48.112;11.662;2023-05-19T06:14:32;95826.19;;;15.84
34310;BMP280;61664;48.112;11.662;2023-05-19T06:16:59;95820.06;;;15.89
34310;BMP280;61664;48.112;11.662;2023-05-19T06:19:26;95839.44;;;15.99
34310;BMP280;61664;48.112;11.662;2023-05-19T06:21:53;95828.69;;;15.99
34310;BMP280;61664;48.112;11.662;2023-05-19T06:24:20;95834.38;;;16.12
34310;BMP280;61664;48.112;11.662;2023-05-19T06:26:47;95834.16;;;16.16
34310;BMP280;61664;48.112;11.662;2023-05-19T06:29:14;95834.91;;;16.22
34310;BMP280;61664;48.112;11.662;2023-05-19T06:31:41;95839.59;;;16.32
34310;BMP280;61664;48.112;11.662;2023-05-19T06:34:08;95836.69;;;16.41
34310;BMP280;61664;48.112;11.662;2023-05-19T06:36:38;95834.97;;;16.44
34310;BMP280;61664;48.112;11.662;2023-05-19T06:39:08;95833.50;;;16.48
34310;BMP280;61664;48.112;11.662;2023-05-19T06:41:35;95836.44;;;16.45
34310;BMP280;61664;48.112;11.662;2023-05-19T06:44:05;95844.56;;;16.51
34310;BMP280;61664;48.112;11.662;2023-05-19T06:46:34;95840.16;;;16.59
34310;BMP280;61664;48.112;11.662;2023-05-19T06:49:01;95841.84;;;16.56
34310;BMP280;61664;48.112;11.662;2023-05-19T06:51:28;95839.66;;;16.66
34310;BMP280;61664;48.112;11.662;2023-05-19T06:53:55;95847.53;;;16.80
34310;BMP280;61664;48.112;11.662;2023-05-19T06:56:22;95834.53;;;16.96
34310;BMP280;61664;48.112;11.662;2023-05-19T06:58:48;95836.75;;;17.08
34310;BMP280;61664;48.112;11.662;2023-05-19T07:01:15;95837.72;;;17.22
34310;BMP280;61664;48.112;11.662;2023-05-19T07:03:42;95836.72;;;17.36
34310;BMP280;61664;48.112;11.662;2023-05-19T07:06:10;95838.19;;;17.43
34310;BMP280;61664;48.112;11.662;2023-05-19T07:08:37;95828.34;;;17.51
34310;BMP280;61664;48.112;11.662;2023-05-19T07:11:04;95834.22;;;17.72
34310;BMP280;61664;48.112;11.662;2023-05-19T07:13:31;95842.50;;;17.90
34310;BMP280;61664;48.112;11.662;2023-05-19T07:15:58;95824.06;;;17.89
34310;BMP280;61664;48.112;11.662;2023-05-19T07:18:25;95835.06;;;18.08
34310;BMP280;61664;48.112;11.662;2023-05-19T07:20:52;95817.13;;;18.05
34310;BMP280;61664;48.112;11.662;2023-05-19T07:23:19;95829.84;;;18.15
34310;BMP280;61664;48.112;11.662;2023-05-19T07:25:46;95832.00;;;18.28
34310;BMP280;61664;48.112;11.662;2023-05-19T07:28:13;95839.56;;;18.41
34310;BMP280;61664;48.112;11.662;2023-05-19T07:30:40;95844.72;;;18.44
34310;BMP280;61664;48.112;11.662;2023-05-19T07:33:07;95835.34;;;18.45
34310;BMP280;61664;48.112;11.662;2023-05-19T07:35:34;95834.59;;;18.50
34310;BMP280;61664;48.112;11.662;2023-05-19T07:38:01;95815.00;;;18.33
34310;BMP280;61664;48.112;11.662;2023-05-19T07:40:28;95838.06;;;18.45
34310;BMP280;61664;48.112;11.662;2023-05-19T07:42:55;95818.09;;;18.48
34310;BMP280;61664;48.112;11.662;2023-05-19T07:45:22;95831.75;;;18.73
34310;BMP280;61664;48.112;11.662;2023-05-19T07:47:49;95819.50;;;18.96
34310;BMP280;61664;48.112;11.662;2023-05-19T07:50:16;95825.50;;;19.13
34310;BMP280;61664;48.112;11.662;2023-05-19T07:52:43;95831.25;;;19.28
34310;BMP280;61664;48.112;11.662;2023-05-19T07:55:10;95826.75;;;19.36
34310;BMP280;61664;48.112;11.662;2023-05-19T07:57:37;95821.78;;;19.40
34310;BMP280;61664;48.112;11.662;2023-05-19T08:00:05;95824.59;;;19.54
34310;BMP280;61664;48.112;11.662;2023-05-19T08:02:33;95831.31;;;19.71
34310;BMP280;61664;48.112;11.662;2023-05-19T08:05:00;95819.84;;;19.78
34310;BMP280;61664;48.112;11.662;2023-05-19T08:07:27;95825.00;;;19.82
34310;BMP280;61664;48.112;11.662;2023-05-19T08:09:54;95827.38;;;19.72
34310;BMP280;61664;48.112;11.662;2023-05-19T08:12:21;95841.84;;;19.75
34310;BMP280;61664;48.112;11.662;2023-05-19T08:14:48;95832.09;;;19.66
34310;BMP280;61664;48.112;11.662;2023-05-19T08:17:15;95842.09;;;19.53
34310;BMP280;61664;48.112;11.662;2023-05-19T08:19:42;95835.38;;;19.35
34310;BMP280;61664;48.112;11.662;2023-05-19T08:22:09;95829.88;;;19.16
34310;BMP280;61664;48.112;11.662;2023-05-19T08:24:36;95835.94;;;18.98
34310;BMP280;61664;48.112;11.662;2023-05-19T08:27:04;95836.06;;;18.87
34310;BMP280;61664;48.112;11.662;2023-05-19T08:29:32;95825.81;;;18.74
34310;BMP280;61664;48.112;11.662;2023-05-19T08:31:59;95820.72;;;18.65
34310;BMP280;61664;48.112;11.662;2023-05-19T08:34:27;95831.25;;;18.68
34310;BMP280;61664;48.112;11.662;2023-05-19T08:36:54;95829.78;;;18.67
34310;BMP280;61664;48.112;11.662;2023-05-19T08:39:23;95826.41;;;18.61
34310;BMP280;61664;48.112;11.662;2023-05-19T08:41:53;95832.63;;;18.51
34310;BMP280;61664;48.112;11.662;2023-05-19T08:44:20;95822.59;;;18.40
34310;BMP280;61664;48.112;11.662;2023-05-19T08:46:49;95819.44;;;18.36
34310;BMP280;61664;48.112;11.662;2023-05-19T08:49:25;95827.53;;;18.36
34310;BMP280;61664;48.112;11.662;2023-05-19T08:52:24;95829.56;;;18.30
34310;BMP280;61664;48.112;11.662;2023-05-19T08:55:03;95836.94;;;18.24
34310;BMP280;61664;48.112;11.662;2023-05-19T08:57:33;95833.34;;;18.10
34310;BMP280;61664;48.112;11.662;2023-05-19T09:00:01;95832.63;;;17.99
34310;BMP280;61664;48.112;11.662;2023-05-19T09:02:29;95828.22;;;17.95
34310;BMP280;61664;48.112;11.662;2023-05-19T09:04:56;95824.81;;;17.89
34310;BMP280;61664;48.112;11.662;2023-05-19T09:07:25;95822.34;;;17.91
34310;BMP280;61664;48.112;11.662;2023-05-19T09:09:52;95828.50;;;17.92
34310;BMP280;61664;48.112;11.662;2023-05-19T09:12:19;95821.38;;;17.89
34310;BMP280;61664;48.112;11.662;2023-05-19T09:14:47;95824.56;;;17.87
34310;BMP280;61664;48.112;11.662;2023-05-19T09:17:14;95821.38;;;17.89
34310;BMP280;61664;48.112;11.662;2023-05-19T09:19:44;95826.75;;;17.94
34310;BMP280;61664;48.112;11.662;2023-05-19T09:22:15;95829.19;;;17.98
34310;BMP280;61664;48.112;11.662;2023-05-19T09:24:45;95822.34;;;17.91
34310;BMP280;61664;48.112;11.662;2023-05-19T09:27:21;95817.41;;;17.95
34310;BMP280;61664;48.112;11.662;2023-05-19T09:29:49;95813.44;;;18.08
34310;BMP280;61664;48.112;11.662;2023-05-19T09:32:26;95814.56;;;18.23
34310;BMP280;61664;48.112;11.662;2023-05-19T09:34:53;95822.63;;;18.34
34310;BMP280;61664;48.112;11.662;2023-05-19T09:37:26;95814.50;;;18.34
34310;BMP280;61664;48.112;11.662;2023-05-19T09:39:54;95812.53;;;18.41
34310;BMP280;61664;48.112;11.662;2023-05-19T09:42:25;95808.75;;;18.49
34310;BMP280;61664;48.112;11.662;2023-05-19T09:45:03;95807.28;;;18.48
34310;BMP280;61664;48.112;11.662;2023-05-19T09:47:34;95810.47;;;18.52
34310;BMP280;61664;48.112;11.662;2023-05-19T09:50:09;95814.88;;;18.55
34310;BMP280;61664;48.112;11.662;2023-05-19T09:52:37;95813.13;;;18.58
34310;BMP280;61664;48.112;11.662;2023-05-19T09:55:09;95813.38;;;18.60
34310;BMP280;61664;48.112;11.662;2023-05-19T09:57:38;95815.56;;;18.61
34310;BMP280;61664;48.112;11.662;2023-05-19T10:00:07;95811.63;;;18.62
34310;BMP280;61664;48.112;11.662;2023-05-19T10:02:41;95807.69;;;18.63
34310;BMP280;61664;48.112;11.662;2023-05-19T10:05:19;95808.13;;;18.67
34310;BMP280;61664;48.112;11.662;2023-05-19T10:07:51;95818.72;;;18.65
34310;BMP280;61664;48.112;11.662;2023-05-19T10:10:19;95802.28;;;18.63
34310;BMP280;61664;48.112;11.662;2023-05-19T10:12:48;95808.44;;;18.64
34310;BMP280;61664;48.112;11.662;2023-05-19T10:15:17;95812.09;;;18.66
34310;BMP280;61664;48.112;11.662;2023-05-19T10:17:49;95790.44;;;18.66
34310;BMP280;61664;48.112;11.662;2023-05-19T10:20:17;95802.19;;;18.75
34310;BMP280;61664;48.112;11.662;2023-05-19T10:22:45;95792.59;;;18.74
34310;BMP280;61664;48.112;11.662;2023-05-19T10:25:12;95800.91;;;18.81
34310;BMP280;61664;48.112;11.662;2023-05-19T10:28:03;95807.63;;;18.99
34310;BMP280;61664;48.112;11.662;2023-05-19T10:30:37;95801.63;;;19.12
34310;BMP280;61664;48.112;11.662;2023-05-19T10:33:10;95805.31;;;19.14
34310;BMP280;61664;48.112;11.662;2023-05-19T10:36:23;95807.28;;;19.14
34310;BMP280;61664;48.112;11.662;2023-05-19T10:38:57;95801.84;;;19.14
34310;BMP280;61664;48.112;11.662;2023-05-19T10:45:01;95802.88;;;19.35
34310;BMP280;61664;48.112;11.662;2023-05-19T10:47:31;95798.78;;;19.47
34310;BMP280;61664;48.112;11.662;2023-05-19T10:49:59;95801.84;;;19.62
34310;BMP280;61664;48.112;11.662;2023-05-19T10:52:26;95793.75;;;19.81
34310;BMP280;61664;48.112;11.662;2023-05-19T10:54:56;95782.91;;;19.81
34310;BMP280;61664;48.112;11.662;2023-05-19T10:57:27;95792.78;;;19.97
34310;BMP280;61664;48.112;11.662;2023-05-19T10:59:55;95791.97;;;20.02
34310;BMP280;61664;48.112;11.662;2023-05-19T11:02:39;95787.53;;;19.99
34310;BMP280;61664;48.112;11.662;2023-05-19T11:05:13;95790.88;;;19.92
34310;BMP280;61664;48.112;11.662;2023-05-19T11:07:58;95795.19;;;19.82
34310;BMP280;61664;48.112;11.662;2023-05-19T11:10:31;95797.34;;;19.65
34310;BMP280;61664;48.112;11.662;2023-05-19T11:12:59;95793.25;;;19.58
34310;BMP280;61664;48.112;11.662;2023-05-19T11:15:27;95791.75;;;19.63
34310;BMP280;61664;48.112;11.662;2023-05-19T11:17:54;95790.03;;;19.78
34310;BMP280;61664;48.112;11.662;2023-05-19T11:20:26;95799.44;;;19.96
34310;BMP280;61664;48.112;11.662;2023-05-19T11:23:20;95781.41;;;19.99
34310;BMP280;61664;48.112;11.662;2023-05-19T11:25:51;95778.94;;;20.01
34310;BMP280;61664;48.112;11.662;2023-05-19T11:28:22;95785.66;;;20.13
34310;BMP280;61664;48.112;11.662;2023-05-19T11:30:55;95772.50;;;20.17
34310;BMP280;61664;48.112;11.662;2023-05-19T11:33:24;95786.38;;;20.32
34310;BMP280;61664;48.112;11.662;2023-05-19T11:35:56;95785.03;;;20.39
34310;BMP280;61664;48.112;11.662;2023-05-19T11:38:26;95769.56;;;20.34
34310;BMP280;61664;48.112;11.662;2023-05-19T11:40:55;95796.16;;;20.54
34310;BMP280;61664;48.112;11.662;2023-05-19T11:43:24;95796.06;;;20.59
34310;BMP280;61664;48.112;11.662;2023-05-19T11:45:53;95805.56;;;20.53
34310;BMP280;61664;48.112;11.662;2023-05-19T11:48:21;95786.81;;;20.36
34310;BMP280;61664;48.112;11.662;2023-05-19T11:50:49;95786.16;;;20.30
34310;BMP280;61664;48.112;11.662;2023-05-19T11:53:16;95795.81;;;20.25
34310;BMP280;61664;48.112;11.662;2023-05-19T11:55:46;95802.53;;;20.24
34310;BMP280;61664;48.112;11.662;2023-05-19T11:58:14;95801.06;;;20.23
34310;BMP280;61664;48.112;11.662;2023-05-19T12:00:44;95800.47;;;20.31
34310;BMP280;61664;48.112;11.662;2023-05-19T12:03:14;95794.06;;;20.28
34310;BMP280;61664;48.112;11.662;2023-05-19T12:05:46;95798.69;;;20.33
34310;BMP280;61664;48.112;11.662;2023-05-19T12:08:16;95797.97;;;20.33
34310;BMP280;61664;48.112;11.662;2023-05-19T12:10:47;95803.91;;;20.31
34310;BMP280;61664;48.112;11.662;2023-05-19T12:13:18;95787.50;;;20.23
34310;BMP280;61664;48.112;11.662;2023-05-19T12:15:45;95789.97;;;20.21
34310;BMP280;61664;48.112;11.662;2023-05-19T12:18:12;95800.63;;;20.19
34310;BMP280;61664;48.112;11.662;2023-05-19T12:20:40;95799.03;;;20.11
34310;BMP280;61664;48.112;11.662;2023-05-19T12:23:07;95791.97;;;20.02
34310;BMP280;61664;48.112;11.662;2023-05-19T12:25:34;95791.09;;;19.94
34310;BMP280;61664;48.112;11.662;2023-05-19T12:28:02;95786.91;;;19.93
34310;BMP280;61664;48.112;11.662;2023-05-19T12:30:30;95789.03;;;20.00
34310;BMP280;61664;48.112;11.662;2023-05-19T12:33:00;95782.97;;;19.94
34310;BMP280;61664;48.112;11.662;2023-05-19T12:35:30;95786.41;;;19.95
34310;BMP280;61664;48.112;11.662;2023-05-19T12:38:06;95782.78;;;19.86
34310;BMP280;61664;48.112;11.662;2023-05-19T12:40:34;95795.19;;;19.82
34310;BMP280;61664;48.112;11.662;2023-05-19T12:43:02;95786.16;;;19.74
34310;BMP280;61664;48.112;11.662;2023-05-19T12:45:36;95791.38;;;19.72
34310;BMP280;61664;48.112;11.662;2023-05-19T12:48:10;95794.28;;;19.74
34310;BMP280;61664;48.112;11.662;2023-05-19T12:50:38;95795.78;;;19.75
34310;BMP280;61664;48.112;11.662;2023-05-19T12:53:09;95800.31;;;19.85
34310;BMP280;61664;48.112;11.662;2023-05-19T12:55:44;95788.03;;;20.03
34310;BMP280;61664;48.112;11.662;2023-05-19T12:58:11;95791.00;;;20.18
34310;BMP280;61664;48.112;11.662;2023-05-19T13:00:41;95779.78;;;20.27
34310;BMP280;61664;48.112;11.662;2023-05-19T13:03:19;95782.72;;;20.61
34310;BMP280;61664;48.112;11.662;2023-05-19T13:05:49;95771.81;;;21.07
34310;BMP280;61664;48.112;11.662;2023-05-19T13:08:19;95783.09;;;21.37
34310;BMP280;61664;48.112;11.662;2023-05-19T13:10:47;95776.31;;;21.43
34310;BMP280;61664;48.112;11.662;2023-05-19T13:13:17;95781.84;;;21.51
34310;BMP280;61664;48.112;11.662;2023-05-19T13:15:46;95767.94;;;21.55
34310;BMP280;61664;48.112;11.662;2023-05-19T13:18:16;95767.03;;;21.73
34310;BMP280;61664;48.112;11.662;2023-05-19T13:20:44;95767.41;;;22.03
34310;BMP280;61664;48.112;11.662;2023-05-19T13:23:13;95756.34;;;22.43
34310;BMP280;61664;48.112;11.662;2023-05-19T13:25:41;95764.75;;;22.73
34310;BMP280;61664;48.112;11.662;2023-05-19T13:28:08;95753.19;;;22.88
34310;BMP280;61664;48.112;11.662;2023-05-19T13:30:38;95761.34;;;23.16
34310;BMP280;61664;48.112;11.662;2023-05-19T13:33:05;95754.97;;;23.50
34310;BMP280;61664;48.112;11.662;2023-05-19T13:35:33;95754.03;;;24.13
34310;BMP280;61664;48.112;11.662;2023-05-19T13:38:08;95736.75;;;24.49
34310;BMP280;61664;48.112;11.662;2023-05-19T13:40:37;95752.00;;;24.82
34310;BMP280;61664;48.112;11.662;2023-05-19T13:43:05;95751.44;;;24.99
34310;BMP280;61664;48.112;11.662;2023-05-19T13:45:33;95748.16;;;24.85
34310;BMP280;61664;48.112;11.662;2023-05-19T13:48:00;95739.84;;;24.68
34310;BMP280;61664;48.112;11.662;2023-05-19T13:50:27;95737.25;;;24.78
34310;BMP280;61664;48.112;11.662;2023-05-19T13:52:54;95738.72;;;24.71
34310;BMP280;61664;48.112;11.662;2023-05-19T13:55:21;95734.94;;;24.51
34310;BMP280;61664;48.112;11.662;2023-05-19T13:57:49;95726.56;;;24.26
34310;BMP280;61664;48.112;11.662;2023-05-19T14:00:17;95729.63;;;24.08
34310;BMP280;61664;48.112;11.662;2023-05-19T14:02:44;95728.34;;;23.78
34310;BMP280;61664;48.112;11.662;2023-05-19T14:05:12;95721.53;;;23.57
34310;BMP280;61664;48.112;11.662;2023-05-19T14:07:39;95724.75;;;23.32
34310;BMP280;61664;48.112;11.662;2023-05-19T14:10:07;95722.25;;;23.06
34310;BMP280;61664;48.112;11.662;2023-05-19T14:12:34;95725.75;;;22.86
34310;BMP280;61664;48.112;11.662;2023-05-19T14:15:22;95723.16;;;22.73
34310;BMP280;61664;48.112;11.662;2023-05-19T14:17:49;95729.19;;;22.79
34310;BMP280;61664;48.112;11.662;2023-05-19T14:20:16;95711.81;;;22.97